<?xml version="1.0" encoding="UTF-8" standalone="no" ?>
<gpx xmlns="http://www.topografix.com/GPX/1/1" xmlns:xsi="http://www.w3.org/2001/XMLSchema-instance" xsi:schemaLocation="http://www.topografix.com/GPX/1/1 http://www.topografix.com/GPX/1/1/gpx.xsd" version="1.1" creator="VisuGPX - https://www.visugpx.com">
  <metadata>
    <name>Saint Julien Labrousse</name>
    <desc><![CDATA[demi parcours du sentier d\'interprétation]]></desc>
  </metadata>
  <trk>
    <name><![CDATA[ACTIVE LOG135231]]></name>
    <trkseg>
      <trkpt lat="44.91849" lon="4.50762">
        <ele>770.593</ele>
        <time>2011-09-09T13:52:31Z</time>
      </trkpt>
      <trkpt lat="44.91847" lon="4.50778">
        <ele>770.311</ele>
        <time>2011-09-09T13:52:38Z</time>
      </trkpt>
      <trkpt lat="44.91844" lon="4.50799">
        <ele>770.318</ele>
        <time>2011-09-09T13:52:54Z</time>
      </trkpt>
      <trkpt lat="44.91848" lon="4.50831">
        <ele>769.415</ele>
        <time>2011-09-09T13:53:14Z</time>
      </trkpt>
      <trkpt lat="44.91849" lon="4.50839">
        <ele>769.37</ele>
        <time>2011-09-09T13:53:19Z</time>
      </trkpt>
      <trkpt lat="44.91857" lon="4.50878">
        <ele>768.26</ele>
        <time>2011-09-09T13:53:44Z</time>
      </trkpt>
      <trkpt lat="44.91858" lon="4.5088">
        <ele>767.677</ele>
        <time>2011-09-09T13:53:46Z</time>
      </trkpt>
      <trkpt lat="44.9186" lon="4.50884">
        <ele>768.102</ele>
        <time>2011-09-09T13:53:49Z</time>
      </trkpt>
      <trkpt lat="44.91864" lon="4.5089">
        <ele>767.551</ele>
        <time>2011-09-09T13:53:54Z</time>
      </trkpt>
      <trkpt lat="44.91865" lon="4.50897">
        <ele>768.219</ele>
        <time>2011-09-09T13:53:58Z</time>
      </trkpt>
      <trkpt lat="44.91868" lon="4.50901">
        <ele>767.589</ele>
        <time>2011-09-09T13:54:01Z</time>
      </trkpt>
      <trkpt lat="44.91871" lon="4.50926">
        <ele>766.929</ele>
        <time>2011-09-09T13:54:17Z</time>
      </trkpt>
      <trkpt lat="44.91876" lon="4.50974">
        <ele>765.92</ele>
        <time>2011-09-09T13:54:47Z</time>
      </trkpt>
      <trkpt lat="44.91882" lon="4.51014">
        <ele>765.295</ele>
        <time>2011-09-09T13:55:12Z</time>
      </trkpt>
      <trkpt lat="44.91887" lon="4.5105">
        <ele>764.027</ele>
        <time>2011-09-09T13:55:35Z</time>
      </trkpt>
      <trkpt lat="44.91887" lon="4.51054">
        <ele>763.848</ele>
        <time>2011-09-09T13:55:37Z</time>
      </trkpt>
      <trkpt lat="44.91893" lon="4.51085">
        <ele>762.722</ele>
        <time>2011-09-09T13:55:57Z</time>
      </trkpt>
      <trkpt lat="44.91898" lon="4.51113">
        <ele>762.408</ele>
        <time>2011-09-09T13:56:15Z</time>
      </trkpt>
      <trkpt lat="44.91907" lon="4.5115">
        <ele>760.631</ele>
        <time>2011-09-09T13:56:39Z</time>
      </trkpt>
      <trkpt lat="44.91917" lon="4.51174">
        <ele>760.515</ele>
        <time>2011-09-09T13:56:59Z</time>
      </trkpt>
      <trkpt lat="44.91925" lon="4.51186">
        <ele>759.812</ele>
        <time>2011-09-09T13:57:12Z</time>
      </trkpt>
      <trkpt lat="44.91943" lon="4.51204">
        <ele>758.31</ele>
        <time>2011-09-09T13:57:35Z</time>
      </trkpt>
      <trkpt lat="44.91952" lon="4.51213">
        <ele>757.951</ele>
        <time>2011-09-09T13:57:46Z</time>
      </trkpt>
      <trkpt lat="44.91967" lon="4.51216">
        <ele>756.996</ele>
        <time>2011-09-09T13:58:01Z</time>
      </trkpt>
      <trkpt lat="44.9198" lon="4.51218">
        <ele>757.114</ele>
        <time>2011-09-09T13:58:15Z</time>
      </trkpt>
      <trkpt lat="44.91996" lon="4.51219">
        <ele>756.179</ele>
        <time>2011-09-09T13:58:37Z</time>
      </trkpt>
      <trkpt lat="44.92006" lon="4.51218">
        <ele>756.351</ele>
        <time>2011-09-09T13:58:51Z</time>
      </trkpt>
      <trkpt lat="44.92023" lon="4.51215">
        <ele>755.475</ele>
        <time>2011-09-09T13:59:07Z</time>
      </trkpt>
      <trkpt lat="44.92035" lon="4.5121">
        <ele>754.208</ele>
        <time>2011-09-09T13:59:19Z</time>
      </trkpt>
      <trkpt lat="44.92058" lon="4.51191">
        <ele>753.396</ele>
        <time>2011-09-09T13:59:42Z</time>
      </trkpt>
      <trkpt lat="44.92084" lon="4.51156">
        <ele>752.344</ele>
        <time>2011-09-09T14:00:12Z</time>
      </trkpt>
      <trkpt lat="44.92107" lon="4.5113">
        <ele>750.965</ele>
        <time>2011-09-09T14:00:38Z</time>
      </trkpt>
      <trkpt lat="44.92125" lon="4.51115">
        <ele>749.822</ele>
        <time>2011-09-09T14:00:59Z</time>
      </trkpt>
      <trkpt lat="44.92148" lon="4.51092">
        <ele>748.856</ele>
        <time>2011-09-09T14:01:23Z</time>
      </trkpt>
      <trkpt lat="44.92164" lon="4.51078">
        <ele>747.907</ele>
        <time>2011-09-09T14:01:43Z</time>
      </trkpt>
      <trkpt lat="44.92184" lon="4.51071">
        <ele>747.731</ele>
        <time>2011-09-09T14:02:05Z</time>
      </trkpt>
      <trkpt lat="44.92186" lon="4.51071">
        <ele>747.542</ele>
        <time>2011-09-09T14:02:53Z</time>
      </trkpt>
      <trkpt lat="44.92195" lon="4.51078">
        <ele>747.179</ele>
        <time>2011-09-09T14:03:09Z</time>
      </trkpt>
      <trkpt lat="44.92199" lon="4.51069">
        <ele>747.249</ele>
        <time>2011-09-09T14:03:24Z</time>
      </trkpt>
      <trkpt lat="44.92203" lon="4.51097">
        <ele>746.91</ele>
        <time>2011-09-09T14:03:41Z</time>
      </trkpt>
      <trkpt lat="44.92191" lon="4.51137">
        <ele>745.893</ele>
        <time>2011-09-09T14:04:06Z</time>
      </trkpt>
      <trkpt lat="44.92168" lon="4.5117">
        <ele>743.75</ele>
        <time>2011-09-09T14:04:33Z</time>
      </trkpt>
      <trkpt lat="44.92165" lon="4.51177">
        <ele>743.836</ele>
        <time>2011-09-09T14:04:39Z</time>
      </trkpt>
      <trkpt lat="44.92148" lon="4.51204">
        <ele>742.932</ele>
        <time>2011-09-09T14:05:04Z</time>
      </trkpt>
      <trkpt lat="44.92144" lon="4.51214">
        <ele>742.93</ele>
        <time>2011-09-09T14:05:23Z</time>
      </trkpt>
      <trkpt lat="44.92143" lon="4.51238">
        <ele>744.318</ele>
        <time>2011-09-09T14:05:41Z</time>
      </trkpt>
      <trkpt lat="44.92146" lon="4.51275">
        <ele>747.053</ele>
        <time>2011-09-09T14:06:04Z</time>
      </trkpt>
      <trkpt lat="44.9215" lon="4.51307">
        <ele>749.558</ele>
        <time>2011-09-09T14:06:28Z</time>
      </trkpt>
      <trkpt lat="44.92149" lon="4.51333">
        <ele>751.1</ele>
        <time>2011-09-09T14:06:48Z</time>
      </trkpt>
      <trkpt lat="44.92146" lon="4.51357">
        <ele>753.721</ele>
        <time>2011-09-09T14:07:08Z</time>
      </trkpt>
      <trkpt lat="44.92144" lon="4.51387">
        <ele>756.411</ele>
        <time>2011-09-09T14:07:31Z</time>
      </trkpt>
      <trkpt lat="44.9214" lon="4.51405">
        <ele>758.004</ele>
        <time>2011-09-09T14:07:46Z</time>
      </trkpt>
      <trkpt lat="44.92139" lon="4.51408">
        <ele>758.755</ele>
        <time>2011-09-09T14:07:49Z</time>
      </trkpt>
      <trkpt lat="44.92122" lon="4.51425">
        <ele>761.168</ele>
        <time>2011-09-09T14:08:11Z</time>
      </trkpt>
      <trkpt lat="44.92107" lon="4.51433">
        <ele>762.788</ele>
        <time>2011-09-09T14:08:31Z</time>
      </trkpt>
      <trkpt lat="44.92087" lon="4.51453">
        <ele>765.204</ele>
        <time>2011-09-09T14:08:56Z</time>
      </trkpt>
      <trkpt lat="44.92071" lon="4.5148">
        <ele>768.027</ele>
        <time>2011-09-09T14:09:22Z</time>
      </trkpt>
      <trkpt lat="44.92057" lon="4.51504">
        <ele>771.497</ele>
        <time>2011-09-09T14:09:45Z</time>
      </trkpt>
      <trkpt lat="44.92048" lon="4.51529">
        <ele>772.975</ele>
        <time>2011-09-09T14:10:05Z</time>
      </trkpt>
      <trkpt lat="44.92045" lon="4.51551">
        <ele>774.932</ele>
        <time>2011-09-09T14:10:52Z</time>
      </trkpt>
      <trkpt lat="44.9205" lon="4.5159">
        <ele>775.865</ele>
        <time>2011-09-09T14:11:17Z</time>
      </trkpt>
      <trkpt lat="44.92056" lon="4.5162">
        <ele>776.163</ele>
        <time>2011-09-09T14:11:38Z</time>
      </trkpt>
      <trkpt lat="44.92068" lon="4.51634">
        <ele>775.203</ele>
        <time>2011-09-09T14:11:53Z</time>
      </trkpt>
      <trkpt lat="44.92072" lon="4.5164">
        <ele>775.86</ele>
        <time>2011-09-09T14:11:58Z</time>
      </trkpt>
      <trkpt lat="44.92075" lon="4.51658">
        <ele>775.816</ele>
        <time>2011-09-09T14:12:10Z</time>
      </trkpt>
      <trkpt lat="44.92076" lon="4.51675">
        <ele>776.152</ele>
        <time>2011-09-09T14:12:22Z</time>
      </trkpt>
      <trkpt lat="44.92071" lon="4.51715">
        <ele>776.896</ele>
        <time>2011-09-09T14:12:44Z</time>
      </trkpt>
      <trkpt lat="44.92071" lon="4.51727">
        <ele>776.125</ele>
        <time>2011-09-09T14:13:11Z</time>
      </trkpt>
      <trkpt lat="44.92075" lon="4.51741">
        <ele>775.962</ele>
        <time>2011-09-09T14:13:36Z</time>
      </trkpt>
      <trkpt lat="44.92076" lon="4.51744">
        <ele>776.006</ele>
        <time>2011-09-09T14:13:39Z</time>
      </trkpt>
      <trkpt lat="44.92095" lon="4.51772">
        <ele>778.915</ele>
        <time>2011-09-09T14:14:04Z</time>
      </trkpt>
      <trkpt lat="44.92107" lon="4.51794">
        <ele>782.01</ele>
        <time>2011-09-09T14:14:23Z</time>
      </trkpt>
      <trkpt lat="44.92118" lon="4.51828">
        <ele>783.282</ele>
        <time>2011-09-09T14:14:49Z</time>
      </trkpt>
      <trkpt lat="44.92118" lon="4.51833">
        <ele>783.574</ele>
        <time>2011-09-09T14:14:52Z</time>
      </trkpt>
      <trkpt lat="44.9212" lon="4.51848">
        <ele>782.476</ele>
        <time>2011-09-09T14:15:13Z</time>
      </trkpt>
      <trkpt lat="44.92122" lon="4.51867">
        <ele>781.379</ele>
        <time>2011-09-09T14:15:25Z</time>
      </trkpt>
      <trkpt lat="44.92134" lon="4.51904">
        <ele>783.197</ele>
        <time>2011-09-09T14:15:52Z</time>
      </trkpt>
      <trkpt lat="44.92134" lon="4.51932">
        <ele>784.208</ele>
        <time>2011-09-09T14:16:10Z</time>
      </trkpt>
      <trkpt lat="44.92135" lon="4.51946">
        <ele>783.678</ele>
        <time>2011-09-09T14:16:29Z</time>
      </trkpt>
      <trkpt lat="44.92137" lon="4.51949">
        <ele>784.19</ele>
        <time>2011-09-09T14:16:32Z</time>
      </trkpt>
      <trkpt lat="44.92149" lon="4.51962">
        <ele>784.745</ele>
        <time>2011-09-09T14:16:48Z</time>
      </trkpt>
      <trkpt lat="44.92151" lon="4.51965">
        <ele>784.65</ele>
        <time>2011-09-09T14:16:51Z</time>
      </trkpt>
      <trkpt lat="44.92159" lon="4.51976">
        <ele>784.99</ele>
        <time>2011-09-09T14:17:01Z</time>
      </trkpt>
      <trkpt lat="44.92162" lon="4.5198">
        <ele>784.977</ele>
        <time>2011-09-09T14:17:05Z</time>
      </trkpt>
      <trkpt lat="44.92179" lon="4.51999">
        <ele>785.247</ele>
        <time>2011-09-09T14:17:28Z</time>
      </trkpt>
      <trkpt lat="44.92186" lon="4.52005">
        <ele>785.228</ele>
        <time>2011-09-09T14:17:41Z</time>
      </trkpt>
      <trkpt lat="44.92189" lon="4.52005">
        <ele>785.626</ele>
        <time>2011-09-09T14:17:44Z</time>
      </trkpt>
      <trkpt lat="44.92198" lon="4.5201">
        <ele>785.936</ele>
        <time>2011-09-09T14:18:00Z</time>
      </trkpt>
      <trkpt lat="44.92206" lon="4.52014">
        <ele>786.041</ele>
        <time>2011-09-09T14:18:19Z</time>
      </trkpt>
      <trkpt lat="44.92214" lon="4.52018">
        <ele>785.948</ele>
        <time>2011-09-09T14:18:26Z</time>
      </trkpt>
      <trkpt lat="44.92235" lon="4.52023">
        <ele>786.138</ele>
        <time>2011-09-09T14:18:47Z</time>
      </trkpt>
      <trkpt lat="44.92252" lon="4.52023">
        <ele>786.989</ele>
        <time>2011-09-09T14:19:03Z</time>
      </trkpt>
      <trkpt lat="44.92271" lon="4.52018">
        <ele>786.01</ele>
        <time>2011-09-09T14:19:24Z</time>
      </trkpt>
      <trkpt lat="44.92292" lon="4.52012">
        <ele>785.672</ele>
        <time>2011-09-09T14:19:44Z</time>
      </trkpt>
      <trkpt lat="44.92303" lon="4.52012">
        <ele>786.349</ele>
        <time>2011-09-09T14:19:57Z</time>
      </trkpt>
      <trkpt lat="44.92311" lon="4.5201">
        <ele>786.346</ele>
        <time>2011-09-09T14:20:05Z</time>
      </trkpt>
      <trkpt lat="44.92327" lon="4.5201">
        <ele>785.335</ele>
        <time>2011-09-09T14:20:20Z</time>
      </trkpt>
      <trkpt lat="44.92345" lon="4.52005">
        <ele>784.941</ele>
        <time>2011-09-09T14:20:38Z</time>
      </trkpt>
      <trkpt lat="44.9236" lon="4.52">
        <ele>784.894</ele>
        <time>2011-09-09T14:20:51Z</time>
      </trkpt>
      <trkpt lat="44.92363" lon="4.51998">
        <ele>784.92</ele>
        <time>2011-09-09T14:20:54Z</time>
      </trkpt>
      <trkpt lat="44.92374" lon="4.51992">
        <ele>784.893</ele>
        <time>2011-09-09T14:21:11Z</time>
      </trkpt>
      <trkpt lat="44.92376" lon="4.51993">
        <ele>784.891</ele>
        <time>2011-09-09T14:21:12Z</time>
      </trkpt>
      <trkpt lat="44.92393" lon="4.51986">
        <ele>784.054</ele>
        <time>2011-09-09T14:21:27Z</time>
      </trkpt>
      <trkpt lat="44.92408" lon="4.51976">
        <ele>783.559</ele>
        <time>2011-09-09T14:21:41Z</time>
      </trkpt>
      <trkpt lat="44.92427" lon="4.51963">
        <ele>781.445</ele>
        <time>2011-09-09T14:22:02Z</time>
      </trkpt>
      <trkpt lat="44.92442" lon="4.51957">
        <ele>781.211</ele>
        <time>2011-09-09T14:22:21Z</time>
      </trkpt>
      <trkpt lat="44.9247" lon="4.51951">
        <ele>781.383</ele>
        <time>2011-09-09T14:22:46Z</time>
      </trkpt>
      <trkpt lat="44.92495" lon="4.51971">
        <ele>781.48</ele>
        <time>2011-09-09T14:23:13Z</time>
      </trkpt>
      <trkpt lat="44.92516" lon="4.51981">
        <ele>781.567</ele>
        <time>2011-09-09T14:23:35Z</time>
      </trkpt>
      <trkpt lat="44.92535" lon="4.51986">
        <ele>782.014</ele>
        <time>2011-09-09T14:24:38Z</time>
      </trkpt>
      <trkpt lat="44.92539" lon="4.51986">
        <ele>783.201</ele>
        <time>2011-09-09T14:24:45Z</time>
      </trkpt>
      <trkpt lat="44.92555" lon="4.51964">
        <ele>784.56</ele>
        <time>2011-09-09T14:25:08Z</time>
      </trkpt>
      <trkpt lat="44.92577" lon="4.51939">
        <ele>787.187</ele>
        <time>2011-09-09T14:25:40Z</time>
      </trkpt>
      <trkpt lat="44.92596" lon="4.51927">
        <ele>790.457</ele>
        <time>2011-09-09T14:26:02Z</time>
      </trkpt>
      <trkpt lat="44.92617" lon="4.51912">
        <ele>794.076</ele>
        <time>2011-09-09T14:26:28Z</time>
      </trkpt>
      <trkpt lat="44.92629" lon="4.51897">
        <ele>796.224</ele>
        <time>2011-09-09T14:26:48Z</time>
      </trkpt>
      <trkpt lat="44.92634" lon="4.51888">
        <ele>797.361</ele>
        <time>2011-09-09T14:26:57Z</time>
      </trkpt>
      <trkpt lat="44.92637" lon="4.51859">
        <ele>800.34</ele>
        <time>2011-09-09T14:27:21Z</time>
      </trkpt>
      <trkpt lat="44.92637" lon="4.51843">
        <ele>800.938</ele>
        <time>2011-09-09T14:27:33Z</time>
      </trkpt>
      <trkpt lat="44.92633" lon="4.51819">
        <ele>802.904</ele>
        <time>2011-09-09T14:27:51Z</time>
      </trkpt>
      <trkpt lat="44.92628" lon="4.51792">
        <ele>804.92</ele>
        <time>2011-09-09T14:28:13Z</time>
      </trkpt>
      <trkpt lat="44.92623" lon="4.51778">
        <ele>804.814</ele>
        <time>2011-09-09T14:28:25Z</time>
      </trkpt>
      <trkpt lat="44.92622" lon="4.51757">
        <ele>804.998</ele>
        <time>2011-09-09T14:28:41Z</time>
      </trkpt>
      <trkpt lat="44.92622" lon="4.51728">
        <ele>806.538</ele>
        <time>2011-09-09T14:29:02Z</time>
      </trkpt>
      <trkpt lat="44.9263" lon="4.5172">
        <ele>807.997</ele>
        <time>2011-09-09T14:29:23Z</time>
      </trkpt>
      <trkpt lat="44.92643" lon="4.51732">
        <ele>807.51</ele>
        <time>2011-09-09T14:29:38Z</time>
      </trkpt>
      <trkpt lat="44.92645" lon="4.51733">
        <ele>808.107</ele>
        <time>2011-09-09T14:29:40Z</time>
      </trkpt>
      <trkpt lat="44.92654" lon="4.51738">
        <ele>808.034</ele>
        <time>2011-09-09T14:29:49Z</time>
      </trkpt>
      <trkpt lat="44.92676" lon="4.51762">
        <ele>808.383</ele>
        <time>2011-09-09T14:30:14Z</time>
      </trkpt>
      <trkpt lat="44.92698" lon="4.51779">
        <ele>809.355</ele>
        <time>2011-09-09T14:30:38Z</time>
      </trkpt>
      <trkpt lat="44.92719" lon="4.5179">
        <ele>809.396</ele>
        <time>2011-09-09T14:30:59Z</time>
      </trkpt>
      <trkpt lat="44.92742" lon="4.51805">
        <ele>809.622</ele>
        <time>2011-09-09T14:31:22Z</time>
      </trkpt>
      <trkpt lat="44.92755" lon="4.51813">
        <ele>810.036</ele>
        <time>2011-09-09T14:31:37Z</time>
      </trkpt>
      <trkpt lat="44.92779" lon="4.51825">
        <ele>810.292</ele>
        <time>2011-09-09T14:31:59Z</time>
      </trkpt>
      <trkpt lat="44.928" lon="4.51838">
        <ele>811.007</ele>
        <time>2011-09-09T14:32:21Z</time>
      </trkpt>
      <trkpt lat="44.92821" lon="4.51856">
        <ele>811.021</ele>
        <time>2011-09-09T14:32:43Z</time>
      </trkpt>
      <trkpt lat="44.92838" lon="4.5188">
        <ele>811.097</ele>
        <time>2011-09-09T14:33:05Z</time>
      </trkpt>
      <trkpt lat="44.92844" lon="4.51894">
        <ele>811.637</ele>
        <time>2011-09-09T14:33:18Z</time>
      </trkpt>
      <trkpt lat="44.92849" lon="4.5191">
        <ele>811.3</ele>
        <time>2011-09-09T14:33:32Z</time>
      </trkpt>
      <trkpt lat="44.92863" lon="4.51935">
        <ele>811.558</ele>
        <time>2011-09-09T14:33:52Z</time>
      </trkpt>
      <trkpt lat="44.92861" lon="4.51937">
        <ele>811.473</ele>
        <time>2011-09-09T14:33:58Z</time>
      </trkpt>
      <trkpt lat="44.92858" lon="4.51933">
        <ele>811.269</ele>
        <time>2011-09-09T14:34:02Z</time>
      </trkpt>
      <trkpt lat="44.9287" lon="4.51963">
        <ele>811.554</ele>
        <time>2011-09-09T14:34:23Z</time>
      </trkpt>
      <trkpt lat="44.92875" lon="4.51972">
        <ele>812.002</ele>
        <time>2011-09-09T14:34:31Z</time>
      </trkpt>
      <trkpt lat="44.92877" lon="4.51983">
        <ele>811.769</ele>
        <time>2011-09-09T14:34:49Z</time>
      </trkpt>
      <trkpt lat="44.92879" lon="4.51987">
        <ele>811.748</ele>
        <time>2011-09-09T14:37:25Z</time>
      </trkpt>
      <trkpt lat="44.92886" lon="4.52006">
        <ele>812.953</ele>
        <time>2011-09-09T14:38:14Z</time>
      </trkpt>
      <trkpt lat="44.9289" lon="4.52013">
        <ele>813.476</ele>
        <time>2011-09-09T14:38:21Z</time>
      </trkpt>
      <trkpt lat="44.92899" lon="4.52049">
        <ele>813.467</ele>
        <time>2011-09-09T14:38:47Z</time>
      </trkpt>
      <trkpt lat="44.92904" lon="4.52073">
        <ele>813.467</ele>
        <time>2011-09-09T14:39:05Z</time>
      </trkpt>
      <trkpt lat="44.92907" lon="4.52074">
        <ele>813.705</ele>
        <time>2011-09-09T14:39:19Z</time>
      </trkpt>
      <trkpt lat="44.92909" lon="4.52082">
        <ele>813.235</ele>
        <time>2011-09-09T14:39:29Z</time>
      </trkpt>
      <trkpt lat="44.92909" lon="4.52092">
        <ele>815.733</ele>
        <time>2011-09-09T14:39:34Z</time>
      </trkpt>
      <trkpt lat="44.92911" lon="4.52096">
        <ele>814</ele>
        <time>2011-09-09T14:39:36Z</time>
      </trkpt>
      <trkpt lat="44.92918" lon="4.52123">
        <ele>815.508</ele>
        <time>2011-09-09T14:39:55Z</time>
      </trkpt>
      <trkpt lat="44.92923" lon="4.52148">
        <ele>817.559</ele>
        <time>2011-09-09T14:40:15Z</time>
      </trkpt>
      <trkpt lat="44.92924" lon="4.52155">
        <ele>818.083</ele>
        <time>2011-09-09T14:40:20Z</time>
      </trkpt>
      <trkpt lat="44.92922" lon="4.52165">
        <ele>820.298</ele>
        <time>2011-09-09T14:40:25Z</time>
      </trkpt>
      <trkpt lat="44.92922" lon="4.52167">
        <ele>818.618</ele>
        <time>2011-09-09T14:40:27Z</time>
      </trkpt>
      <trkpt lat="44.92916" lon="4.52176">
        <ele>819.574</ele>
        <time>2011-09-09T14:40:36Z</time>
      </trkpt>
      <trkpt lat="44.92913" lon="4.52181">
        <ele>821.139</ele>
        <time>2011-09-09T14:40:39Z</time>
      </trkpt>
      <trkpt lat="44.92912" lon="4.5219">
        <ele>820.62</ele>
        <time>2011-09-09T14:40:45Z</time>
      </trkpt>
      <trkpt lat="44.92912" lon="4.52198">
        <ele>821.143</ele>
        <time>2011-09-09T14:40:50Z</time>
      </trkpt>
      <trkpt lat="44.92906" lon="4.52214">
        <ele>822.052</ele>
        <time>2011-09-09T14:41:04Z</time>
      </trkpt>
      <trkpt lat="44.92905" lon="4.52218">
        <ele>822.463</ele>
        <time>2011-09-09T14:41:07Z</time>
      </trkpt>
      <trkpt lat="44.92904" lon="4.52223">
        <ele>822.622</ele>
        <time>2011-09-09T14:41:11Z</time>
      </trkpt>
      <trkpt lat="44.92903" lon="4.52243">
        <ele>824.612</ele>
        <time>2011-09-09T14:41:27Z</time>
      </trkpt>
      <trkpt lat="44.92905" lon="4.52257">
        <ele>826.186</ele>
        <time>2011-09-09T14:41:40Z</time>
      </trkpt>
      <trkpt lat="44.9291" lon="4.5227">
        <ele>828.097</ele>
        <time>2011-09-09T14:41:53Z</time>
      </trkpt>
      <trkpt lat="44.92911" lon="4.52274">
        <ele>828.259</ele>
        <time>2011-09-09T14:42:07Z</time>
      </trkpt>
      <trkpt lat="44.9291" lon="4.52274">
        <ele>828.555</ele>
        <time>2011-09-09T14:42:30Z</time>
      </trkpt>
      <trkpt lat="44.92911" lon="4.52277">
        <ele>828.628</ele>
        <time>2011-09-09T14:42:35Z</time>
      </trkpt>
      <trkpt lat="44.92918" lon="4.52299">
        <ele>831.373</ele>
        <time>2011-09-09T14:42:56Z</time>
      </trkpt>
      <trkpt lat="44.92925" lon="4.52318">
        <ele>832.9</ele>
        <time>2011-09-09T14:43:14Z</time>
      </trkpt>
      <trkpt lat="44.92933" lon="4.52329">
        <ele>833.505</ele>
        <time>2011-09-09T14:43:29Z</time>
      </trkpt>
      <trkpt lat="44.92944" lon="4.52352">
        <ele>833.177</ele>
        <time>2011-09-09T14:43:48Z</time>
      </trkpt>
      <trkpt lat="44.92947" lon="4.52358">
        <ele>833.562</ele>
        <time>2011-09-09T14:43:52Z</time>
      </trkpt>
      <trkpt lat="44.92948" lon="4.52376">
        <ele>833.951</ele>
        <time>2011-09-09T14:44:05Z</time>
      </trkpt>
      <trkpt lat="44.92949" lon="4.5239">
        <ele>834.952</ele>
        <time>2011-09-09T14:44:16Z</time>
      </trkpt>
      <trkpt lat="44.92948" lon="4.52393">
        <ele>835.238</ele>
        <time>2011-09-09T14:44:18Z</time>
      </trkpt>
      <trkpt lat="44.92946" lon="4.52398">
        <ele>835.648</ele>
        <time>2011-09-09T14:44:22Z</time>
      </trkpt>
      <trkpt lat="44.92948" lon="4.52403">
        <ele>836.253</ele>
        <time>2011-09-09T14:44:25Z</time>
      </trkpt>
      <trkpt lat="44.92948" lon="4.52416">
        <ele>836.768</ele>
        <time>2011-09-09T14:44:43Z</time>
      </trkpt>
      <trkpt lat="44.92944" lon="4.52429">
        <ele>838.053</ele>
        <time>2011-09-09T14:45:05Z</time>
      </trkpt>
      <trkpt lat="44.92943" lon="4.52434">
        <ele>838.366</ele>
        <time>2011-09-09T14:45:09Z</time>
      </trkpt>
      <trkpt lat="44.92942" lon="4.52444">
        <ele>839.556</ele>
        <time>2011-09-09T14:45:17Z</time>
      </trkpt>
      <trkpt lat="44.92944" lon="4.52452">
        <ele>839.984</ele>
        <time>2011-09-09T14:45:22Z</time>
      </trkpt>
      <trkpt lat="44.92941" lon="4.52466">
        <ele>841.649</ele>
        <time>2011-09-09T14:45:34Z</time>
      </trkpt>
      <trkpt lat="44.92941" lon="4.52468">
        <ele>842.005</ele>
        <time>2011-09-09T14:45:36Z</time>
      </trkpt>
      <trkpt lat="44.9294" lon="4.52471">
        <ele>842.398</ele>
        <time>2011-09-09T14:45:39Z</time>
      </trkpt>
      <trkpt lat="44.92942" lon="4.5249">
        <ele>844.399</ele>
        <time>2011-09-09T14:45:53Z</time>
      </trkpt>
      <trkpt lat="44.92941" lon="4.525">
        <ele>844.887</ele>
        <time>2011-09-09T14:46:00Z</time>
      </trkpt>
      <trkpt lat="44.92937" lon="4.52518">
        <ele>848.141</ele>
        <time>2011-09-09T14:46:20Z</time>
      </trkpt>
      <trkpt lat="44.92941" lon="4.52526">
        <ele>849.667</ele>
        <time>2011-09-09T14:46:30Z</time>
      </trkpt>
      <trkpt lat="44.9295" lon="4.52536">
        <ele>851.288</ele>
        <time>2011-09-09T14:46:48Z</time>
      </trkpt>
      <trkpt lat="44.92953" lon="4.52541">
        <ele>852.649</ele>
        <time>2011-09-09T14:47:03Z</time>
      </trkpt>
      <trkpt lat="44.92956" lon="4.52549">
        <ele>853.403</ele>
        <time>2011-09-09T14:47:22Z</time>
      </trkpt>
      <trkpt lat="44.92958" lon="4.52549">
        <ele>853.103</ele>
        <time>2011-09-09T14:47:29Z</time>
      </trkpt>
      <trkpt lat="44.92961" lon="4.52553">
        <ele>853.663</ele>
        <time>2011-09-09T14:47:33Z</time>
      </trkpt>
      <trkpt lat="44.92969" lon="4.52564">
        <ele>855.46</ele>
        <time>2011-09-09T14:47:46Z</time>
      </trkpt>
      <trkpt lat="44.92981" lon="4.5258">
        <ele>857.393</ele>
        <time>2011-09-09T14:48:03Z</time>
      </trkpt>
      <trkpt lat="44.92987" lon="4.52589">
        <ele>857.204</ele>
        <time>2011-09-09T14:48:13Z</time>
      </trkpt>
      <trkpt lat="44.92992" lon="4.52607">
        <ele>856.792</ele>
        <time>2011-09-09T14:48:29Z</time>
      </trkpt>
      <trkpt lat="44.92997" lon="4.52621">
        <ele>856.739</ele>
        <time>2011-09-09T14:48:37Z</time>
      </trkpt>
      <trkpt lat="44.92999" lon="4.52631">
        <ele>856.275</ele>
        <time>2011-09-09T14:48:42Z</time>
      </trkpt>
      <trkpt lat="44.93002" lon="4.5264">
        <ele>855.954</ele>
        <time>2011-09-09T14:48:47Z</time>
      </trkpt>
      <trkpt lat="44.93003" lon="4.52648">
        <ele>855.809</ele>
        <time>2011-09-09T14:48:51Z</time>
      </trkpt>
      <trkpt lat="44.93006" lon="4.52658">
        <ele>855.154</ele>
        <time>2011-09-09T14:48:56Z</time>
      </trkpt>
      <trkpt lat="44.93007" lon="4.52672">
        <ele>855.161</ele>
        <time>2011-09-09T14:49:03Z</time>
      </trkpt>
      <trkpt lat="44.93003" lon="4.52679">
        <ele>854.675</ele>
        <time>2011-09-09T14:49:08Z</time>
      </trkpt>
      <trkpt lat="44.92998" lon="4.52693">
        <ele>854.18</ele>
        <time>2011-09-09T14:49:17Z</time>
      </trkpt>
      <trkpt lat="44.92996" lon="4.527">
        <ele>854.634</ele>
        <time>2011-09-09T14:49:22Z</time>
      </trkpt>
      <trkpt lat="44.92993" lon="4.52722">
        <ele>854.27</ele>
        <time>2011-09-09T14:49:34Z</time>
      </trkpt>
      <trkpt lat="44.92995" lon="4.52732">
        <ele>854.529</ele>
        <time>2011-09-09T14:49:39Z</time>
      </trkpt>
      <trkpt lat="44.92998" lon="4.52744">
        <ele>854.021</ele>
        <time>2011-09-09T14:49:47Z</time>
      </trkpt>
      <trkpt lat="44.92999" lon="4.52746">
        <ele>854.109</ele>
        <time>2011-09-09T14:49:49Z</time>
      </trkpt>
      <trkpt lat="44.92997" lon="4.52752">
        <ele>853.827</ele>
        <time>2011-09-09T14:49:53Z</time>
      </trkpt>
      <trkpt lat="44.93001" lon="4.52761">
        <ele>853.709</ele>
        <time>2011-09-09T14:49:57Z</time>
      </trkpt>
      <trkpt lat="44.93003" lon="4.52771">
        <ele>853.511</ele>
        <time>2011-09-09T14:50:03Z</time>
      </trkpt>
      <trkpt lat="44.93004" lon="4.52775">
        <ele>853.371</ele>
        <time>2011-09-09T14:50:05Z</time>
      </trkpt>
      <trkpt lat="44.93004" lon="4.52782">
        <ele>852.963</ele>
        <time>2011-09-09T14:50:09Z</time>
      </trkpt>
      <trkpt lat="44.93008" lon="4.52794">
        <ele>852.44</ele>
        <time>2011-09-09T14:50:15Z</time>
      </trkpt>
      <trkpt lat="44.9301" lon="4.52833">
        <ele>850.614</ele>
        <time>2011-09-09T14:50:36Z</time>
      </trkpt>
      <trkpt lat="44.93012" lon="4.52874">
        <ele>849.804</ele>
        <time>2011-09-09T14:50:59Z</time>
      </trkpt>
      <trkpt lat="44.93013" lon="4.5291">
        <ele>847.502</ele>
        <time>2011-09-09T14:51:20Z</time>
      </trkpt>
      <trkpt lat="44.93013" lon="4.52924">
        <ele>847.141</ele>
        <time>2011-09-09T14:51:28Z</time>
      </trkpt>
      <trkpt lat="44.93013" lon="4.52948">
        <ele>846.466</ele>
        <time>2011-09-09T14:51:42Z</time>
      </trkpt>
      <trkpt lat="44.93011" lon="4.52958">
        <ele>846.044</ele>
        <time>2011-09-09T14:51:48Z</time>
      </trkpt>
      <trkpt lat="44.93009" lon="4.52968">
        <ele>846.083</ele>
        <time>2011-09-09T14:51:54Z</time>
      </trkpt>
      <trkpt lat="44.93008" lon="4.53">
        <ele>845.503</ele>
        <time>2011-09-09T14:52:13Z</time>
      </trkpt>
      <trkpt lat="44.93011" lon="4.53018">
        <ele>844.703</ele>
        <time>2011-09-09T14:52:24Z</time>
      </trkpt>
      <trkpt lat="44.9301" lon="4.53026">
        <ele>844.744</ele>
        <time>2011-09-09T14:52:29Z</time>
      </trkpt>
      <trkpt lat="44.93012" lon="4.53031">
        <ele>844.406</ele>
        <time>2011-09-09T14:52:32Z</time>
      </trkpt>
      <trkpt lat="44.93006" lon="4.53044">
        <ele>844.193</ele>
        <time>2011-09-09T14:52:41Z</time>
      </trkpt>
      <trkpt lat="44.93004" lon="4.53049">
        <ele>844.201</ele>
        <time>2011-09-09T14:52:45Z</time>
      </trkpt>
      <trkpt lat="44.93003" lon="4.53059">
        <ele>843.994</ele>
        <time>2011-09-09T14:52:51Z</time>
      </trkpt>
      <trkpt lat="44.93002" lon="4.5308">
        <ele>844.232</ele>
        <time>2011-09-09T14:53:03Z</time>
      </trkpt>
      <trkpt lat="44.92996" lon="4.53088">
        <ele>844.079</ele>
        <time>2011-09-09T14:53:24Z</time>
      </trkpt>
      <trkpt lat="44.92996" lon="4.53096">
        <ele>845.489</ele>
        <time>2011-09-09T14:53:37Z</time>
      </trkpt>
      <trkpt lat="44.92991" lon="4.53094">
        <ele>844.903</ele>
        <time>2011-09-09T14:53:51Z</time>
      </trkpt>
      <trkpt lat="44.9297" lon="4.53107">
        <ele>846.011</ele>
        <time>2011-09-09T14:54:11Z</time>
      </trkpt>
      <trkpt lat="44.92957" lon="4.53117">
        <ele>845.845</ele>
        <time>2011-09-09T14:54:24Z</time>
      </trkpt>
      <trkpt lat="44.92953" lon="4.53124">
        <ele>846.182</ele>
        <time>2011-09-09T14:54:36Z</time>
      </trkpt>
      <trkpt lat="44.92936" lon="4.53136">
        <ele>846.229</ele>
        <time>2011-09-09T14:54:53Z</time>
      </trkpt>
      <trkpt lat="44.92918" lon="4.53148">
        <ele>846.741</ele>
        <time>2011-09-09T14:55:08Z</time>
      </trkpt>
      <trkpt lat="44.92891" lon="4.53158">
        <ele>846.617</ele>
        <time>2011-09-09T14:55:30Z</time>
      </trkpt>
      <trkpt lat="44.9287" lon="4.53169">
        <ele>847.253</ele>
        <time>2011-09-09T14:55:49Z</time>
      </trkpt>
      <trkpt lat="44.92851" lon="4.53187">
        <ele>847.949</ele>
        <time>2011-09-09T14:56:09Z</time>
      </trkpt>
      <trkpt lat="44.92831" lon="4.53201">
        <ele>847.918</ele>
        <time>2011-09-09T14:56:29Z</time>
      </trkpt>
      <trkpt lat="44.92819" lon="4.53215">
        <ele>848.72</ele>
        <time>2011-09-09T14:56:43Z</time>
      </trkpt>
      <trkpt lat="44.92817" lon="4.5322">
        <ele>849.182</ele>
        <time>2011-09-09T14:56:46Z</time>
      </trkpt>
      <trkpt lat="44.92812" lon="4.53228">
        <ele>849.233</ele>
        <time>2011-09-09T14:56:55Z</time>
      </trkpt>
      <trkpt lat="44.92807" lon="4.53247">
        <ele>849.466</ele>
        <time>2011-09-09T14:57:07Z</time>
      </trkpt>
      <trkpt lat="44.92805" lon="4.5325">
        <ele>849.848</ele>
        <time>2011-09-09T14:57:09Z</time>
      </trkpt>
      <trkpt lat="44.92803" lon="4.53261">
        <ele>848.525</ele>
        <time>2011-09-09T14:57:15Z</time>
      </trkpt>
      <trkpt lat="44.92799" lon="4.53298">
        <ele>847.61</ele>
        <time>2011-09-09T14:57:38Z</time>
      </trkpt>
      <trkpt lat="44.92797" lon="4.5331">
        <ele>846.782</ele>
        <time>2011-09-09T14:57:57Z</time>
      </trkpt>
      <trkpt lat="44.92799" lon="4.53322">
        <ele>845.641</ele>
        <time>2011-09-09T14:58:24Z</time>
      </trkpt>
      <trkpt lat="44.92801" lon="4.53329">
        <ele>844.934</ele>
        <time>2011-09-09T14:58:28Z</time>
      </trkpt>
      <trkpt lat="44.92806" lon="4.53346">
        <ele>843.515</ele>
        <time>2011-09-09T14:58:38Z</time>
      </trkpt>
      <trkpt lat="44.92813" lon="4.53361">
        <ele>841.534</ele>
        <time>2011-09-09T14:58:49Z</time>
      </trkpt>
      <trkpt lat="44.92819" lon="4.53382">
        <ele>841.339</ele>
        <time>2011-09-09T14:59:01Z</time>
      </trkpt>
      <trkpt lat="44.92821" lon="4.53419">
        <ele>839.61</ele>
        <time>2011-09-09T14:59:32Z</time>
      </trkpt>
      <trkpt lat="44.92822" lon="4.53423">
        <ele>839.621</ele>
        <time>2011-09-09T14:59:43Z</time>
      </trkpt>
      <trkpt lat="44.92822" lon="4.53446">
        <ele>838.08</ele>
        <time>2011-09-09T14:59:56Z</time>
      </trkpt>
      <trkpt lat="44.92821" lon="4.53462">
        <ele>837.485</ele>
        <time>2011-09-09T15:00:05Z</time>
      </trkpt>
      <trkpt lat="44.92819" lon="4.53474">
        <ele>837.015</ele>
        <time>2011-09-09T15:00:15Z</time>
      </trkpt>
      <trkpt lat="44.92818" lon="4.53487">
        <ele>836.775</ele>
        <time>2011-09-09T15:00:28Z</time>
      </trkpt>
      <trkpt lat="44.92816" lon="4.53504">
        <ele>836.719</ele>
        <time>2011-09-09T15:00:40Z</time>
      </trkpt>
      <trkpt lat="44.92813" lon="4.53515">
        <ele>836.451</ele>
        <time>2011-09-09T15:00:48Z</time>
      </trkpt>
      <trkpt lat="44.92803" lon="4.53517">
        <ele>833.184</ele>
        <time>2011-09-09T15:01:00Z</time>
      </trkpt>
      <trkpt lat="44.928" lon="4.53514">
        <ele>832.424</ele>
        <time>2011-09-09T15:01:18Z</time>
      </trkpt>
      <trkpt lat="44.92795" lon="4.5351">
        <ele>830.675</ele>
        <time>2011-09-09T15:01:31Z</time>
      </trkpt>
      <trkpt lat="44.9279" lon="4.53487">
        <ele>829.694</ele>
        <time>2011-09-09T15:01:46Z</time>
      </trkpt>
      <trkpt lat="44.92784" lon="4.53481">
        <ele>828.529</ele>
        <time>2011-09-09T15:01:59Z</time>
      </trkpt>
      <trkpt lat="44.92782" lon="4.53477">
        <ele>827.606</ele>
        <time>2011-09-09T15:02:03Z</time>
      </trkpt>
      <trkpt lat="44.92767" lon="4.53461">
        <ele>825.357</ele>
        <time>2011-09-09T15:02:19Z</time>
      </trkpt>
      <trkpt lat="44.92765" lon="4.53458">
        <ele>824.615</ele>
        <time>2011-09-09T15:02:22Z</time>
      </trkpt>
      <trkpt lat="44.92758" lon="4.53454">
        <ele>823.531</ele>
        <time>2011-09-09T15:02:29Z</time>
      </trkpt>
      <trkpt lat="44.92752" lon="4.53458">
        <ele>822.077</ele>
        <time>2011-09-09T15:02:37Z</time>
      </trkpt>
      <trkpt lat="44.92752" lon="4.53463">
        <ele>821.386</ele>
        <time>2011-09-09T15:02:48Z</time>
      </trkpt>
      <trkpt lat="44.92741" lon="4.53462">
        <ele>817.688</ele>
        <time>2011-09-09T15:03:01Z</time>
      </trkpt>
      <trkpt lat="44.92732" lon="4.53464">
        <ele>815.774</ele>
        <time>2011-09-09T15:03:14Z</time>
      </trkpt>
      <trkpt lat="44.9273" lon="4.53466">
        <ele>814.628</ele>
        <time>2011-09-09T15:03:17Z</time>
      </trkpt>
      <trkpt lat="44.92729" lon="4.53471">
        <ele>813.566</ele>
        <time>2011-09-09T15:03:21Z</time>
      </trkpt>
      <trkpt lat="44.92731" lon="4.53478">
        <ele>812.48</ele>
        <time>2011-09-09T15:03:26Z</time>
      </trkpt>
      <trkpt lat="44.92731" lon="4.53486">
        <ele>811.243</ele>
        <time>2011-09-09T15:03:32Z</time>
      </trkpt>
      <trkpt lat="44.92728" lon="4.53495">
        <ele>809.655</ele>
        <time>2011-09-09T15:03:43Z</time>
      </trkpt>
      <trkpt lat="44.92723" lon="4.53495">
        <ele>808.852</ele>
        <time>2011-09-09T15:03:56Z</time>
      </trkpt>
      <trkpt lat="44.9271" lon="4.53494">
        <ele>806.57</ele>
        <time>2011-09-09T15:04:07Z</time>
      </trkpt>
      <trkpt lat="44.92707" lon="4.53493">
        <ele>806.076</ele>
        <time>2011-09-09T15:04:09Z</time>
      </trkpt>
      <trkpt lat="44.92689" lon="4.53483">
        <ele>804.232</ele>
        <time>2011-09-09T15:04:28Z</time>
      </trkpt>
      <trkpt lat="44.92682" lon="4.5348">
        <ele>804.546</ele>
        <time>2011-09-09T15:04:51Z</time>
      </trkpt>
      <trkpt lat="44.92669" lon="4.53488">
        <ele>804.993</ele>
        <time>2011-09-09T15:05:09Z</time>
      </trkpt>
      <trkpt lat="44.92655" lon="4.53491">
        <ele>805.741</ele>
        <time>2011-09-09T15:05:23Z</time>
      </trkpt>
      <trkpt lat="44.92637" lon="4.53496">
        <ele>805.954</ele>
        <time>2011-09-09T15:05:39Z</time>
      </trkpt>
      <trkpt lat="44.92616" lon="4.53511">
        <ele>805.976</ele>
        <time>2011-09-09T15:05:59Z</time>
      </trkpt>
      <trkpt lat="44.92614" lon="4.53512">
        <ele>806.161</ele>
        <time>2011-09-09T15:06:02Z</time>
      </trkpt>
      <trkpt lat="44.9261" lon="4.53516">
        <ele>806.175</ele>
        <time>2011-09-09T15:06:06Z</time>
      </trkpt>
      <trkpt lat="44.92593" lon="4.53532">
        <ele>805.778</ele>
        <time>2011-09-09T15:06:24Z</time>
      </trkpt>
      <trkpt lat="44.92572" lon="4.53553">
        <ele>805.102</ele>
        <time>2011-09-09T15:06:47Z</time>
      </trkpt>
      <trkpt lat="44.92561" lon="4.53565">
        <ele>805.552</ele>
        <time>2011-09-09T15:07:00Z</time>
      </trkpt>
      <trkpt lat="44.9256" lon="4.53567">
        <ele>805.238</ele>
        <time>2011-09-09T15:07:02Z</time>
      </trkpt>
      <trkpt lat="44.92558" lon="4.53572">
        <ele>803.345</ele>
        <time>2011-09-09T15:07:05Z</time>
      </trkpt>
      <trkpt lat="44.92544" lon="4.53593">
        <ele>800.271</ele>
        <time>2011-09-09T15:07:24Z</time>
      </trkpt>
      <trkpt lat="44.92536" lon="4.53607">
        <ele>797.961</ele>
        <time>2011-09-09T15:07:41Z</time>
      </trkpt>
      <trkpt lat="44.92526" lon="4.53629">
        <ele>794.723</ele>
        <time>2011-09-09T15:07:59Z</time>
      </trkpt>
      <trkpt lat="44.92517" lon="4.53648">
        <ele>791.362</ele>
        <time>2011-09-09T15:08:15Z</time>
      </trkpt>
      <trkpt lat="44.92503" lon="4.53676">
        <ele>787.799</ele>
        <time>2011-09-09T15:08:39Z</time>
      </trkpt>
      <trkpt lat="44.92492" lon="4.53682">
        <ele>785.55</ele>
        <time>2011-09-09T15:08:57Z</time>
      </trkpt>
      <trkpt lat="44.92465" lon="4.53682">
        <ele>783.604</ele>
        <time>2011-09-09T15:09:20Z</time>
      </trkpt>
      <trkpt lat="44.92437" lon="4.53686">
        <ele>780.517</ele>
        <time>2011-09-09T15:09:44Z</time>
      </trkpt>
      <trkpt lat="44.92423" lon="4.53687">
        <ele>778.977</ele>
        <time>2011-09-09T15:09:57Z</time>
      </trkpt>
      <trkpt lat="44.9241" lon="4.5368">
        <ele>777.795</ele>
        <time>2011-09-09T15:10:10Z</time>
      </trkpt>
      <trkpt lat="44.92401" lon="4.53687">
        <ele>775.973</ele>
        <time>2011-09-09T15:10:27Z</time>
      </trkpt>
      <trkpt lat="44.92393" lon="4.53694">
        <ele>774.285</ele>
        <time>2011-09-09T15:10:48Z</time>
      </trkpt>
      <trkpt lat="44.9238" lon="4.53702">
        <ele>773.128</ele>
        <time>2011-09-09T15:11:05Z</time>
      </trkpt>
      <trkpt lat="44.9238" lon="4.53706">
        <ele>772.908</ele>
        <time>2011-09-09T15:11:24Z</time>
      </trkpt>
      <trkpt lat="44.92378" lon="4.53704">
        <ele>772.693</ele>
        <time>2011-09-09T15:11:27Z</time>
      </trkpt>
      <trkpt lat="44.92354" lon="4.53717">
        <ele>771.206</ele>
        <time>2011-09-09T15:11:49Z</time>
      </trkpt>
      <trkpt lat="44.92343" lon="4.53725">
        <ele>769.901</ele>
        <time>2011-09-09T15:12:00Z</time>
      </trkpt>
      <trkpt lat="44.92338" lon="4.53728">
        <ele>769.373</ele>
        <time>2011-09-09T15:12:23Z</time>
      </trkpt>
      <trkpt lat="44.92338" lon="4.5373">
        <ele>769.248</ele>
        <time>2011-09-09T15:12:36Z</time>
      </trkpt>
      <trkpt lat="44.92325" lon="4.53744">
        <ele>767.477</ele>
        <time>2011-09-09T15:12:49Z</time>
      </trkpt>
      <trkpt lat="44.92313" lon="4.53756">
        <ele>764.533</ele>
        <time>2011-09-09T15:13:02Z</time>
      </trkpt>
      <trkpt lat="44.92306" lon="4.53765">
        <ele>761.883</ele>
        <time>2011-09-09T15:13:11Z</time>
      </trkpt>
      <trkpt lat="44.923" lon="4.53768">
        <ele>760.261</ele>
        <time>2011-09-09T15:13:20Z</time>
      </trkpt>
      <trkpt lat="44.92294" lon="4.53767">
        <ele>760.112</ele>
        <time>2011-09-09T15:13:26Z</time>
      </trkpt>
      <trkpt lat="44.92283" lon="4.53758">
        <ele>759.671</ele>
        <time>2011-09-09T15:13:38Z</time>
      </trkpt>
      <trkpt lat="44.92276" lon="4.53733">
        <ele>758.768</ele>
        <time>2011-09-09T15:13:54Z</time>
      </trkpt>
      <trkpt lat="44.92273" lon="4.53725">
        <ele>758.337</ele>
        <time>2011-09-09T15:13:58Z</time>
      </trkpt>
      <trkpt lat="44.92271" lon="4.53715">
        <ele>757.906</ele>
        <time>2011-09-09T15:14:03Z</time>
      </trkpt>
      <trkpt lat="44.92269" lon="4.5371">
        <ele>757.946</ele>
        <time>2011-09-09T15:14:06Z</time>
      </trkpt>
      <trkpt lat="44.9226" lon="4.53689">
        <ele>757.239</ele>
        <time>2011-09-09T15:14:20Z</time>
      </trkpt>
      <trkpt lat="44.92257" lon="4.53682">
        <ele>756.941</ele>
        <time>2011-09-09T15:14:25Z</time>
      </trkpt>
      <trkpt lat="44.92242" lon="4.5365">
        <ele>756.99</ele>
        <time>2011-09-09T15:14:46Z</time>
      </trkpt>
      <trkpt lat="44.92237" lon="4.5364">
        <ele>757.125</ele>
        <time>2011-09-09T15:14:53Z</time>
      </trkpt>
      <trkpt lat="44.92236" lon="4.53618">
        <ele>756.703</ele>
        <time>2011-09-09T15:15:05Z</time>
      </trkpt>
      <trkpt lat="44.92236" lon="4.53603">
        <ele>755.999</ele>
        <time>2011-09-09T15:15:19Z</time>
      </trkpt>
      <trkpt lat="44.92235" lon="4.53585">
        <ele>756.283</ele>
        <time>2011-09-09T15:15:31Z</time>
      </trkpt>
      <trkpt lat="44.92231" lon="4.53561">
        <ele>754.98</ele>
        <time>2011-09-09T15:15:40Z</time>
      </trkpt>
      <trkpt lat="44.92231" lon="4.53555">
        <ele>754.648</ele>
        <time>2011-09-09T15:15:43Z</time>
      </trkpt>
      <trkpt lat="44.92232" lon="4.5355">
        <ele>753.379</ele>
        <time>2011-09-09T15:15:46Z</time>
      </trkpt>
      <trkpt lat="44.92233" lon="4.53547">
        <ele>753.193</ele>
        <time>2011-09-09T15:15:48Z</time>
      </trkpt>
      <trkpt lat="44.92234" lon="4.5354">
        <ele>752.927</ele>
        <time>2011-09-09T15:15:52Z</time>
      </trkpt>
      <trkpt lat="44.92234" lon="4.53535">
        <ele>752.224</ele>
        <time>2011-09-09T15:15:58Z</time>
      </trkpt>
      <trkpt lat="44.92219" lon="4.5351">
        <ele>751.966</ele>
        <time>2011-09-09T15:16:21Z</time>
      </trkpt>
      <trkpt lat="44.92208" lon="4.5349">
        <ele>752.335</ele>
        <time>2011-09-09T15:16:40Z</time>
      </trkpt>
      <trkpt lat="44.92196" lon="4.5347">
        <ele>751.834</ele>
        <time>2011-09-09T15:17:00Z</time>
      </trkpt>
      <trkpt lat="44.92189" lon="4.53452">
        <ele>751.699</ele>
        <time>2011-09-09T15:17:19Z</time>
      </trkpt>
      <trkpt lat="44.92175" lon="4.5342">
        <ele>751.331</ele>
        <time>2011-09-09T15:17:42Z</time>
      </trkpt>
      <trkpt lat="44.9216" lon="4.53386">
        <ele>751.956</ele>
        <time>2011-09-09T15:18:06Z</time>
      </trkpt>
      <trkpt lat="44.92148" lon="4.53361">
        <ele>755.036</ele>
        <time>2011-09-09T15:18:25Z</time>
      </trkpt>
      <trkpt lat="44.92147" lon="4.53356">
        <ele>755.213</ele>
        <time>2011-09-09T15:18:43Z</time>
      </trkpt>
      <trkpt lat="44.92145" lon="4.53332">
        <ele>755.947</ele>
        <time>2011-09-09T15:18:59Z</time>
      </trkpt>
      <trkpt lat="44.92137" lon="4.53301">
        <ele>756.223</ele>
        <time>2011-09-09T15:19:18Z</time>
      </trkpt>
      <trkpt lat="44.92131" lon="4.53269">
        <ele>758.973</ele>
        <time>2011-09-09T15:19:40Z</time>
      </trkpt>
      <trkpt lat="44.92136" lon="4.5325">
        <ele>760.147</ele>
        <time>2011-09-09T15:19:56Z</time>
      </trkpt>
      <trkpt lat="44.92138" lon="4.53243">
        <ele>760.334</ele>
        <time>2011-09-09T15:20:23Z</time>
      </trkpt>
      <trkpt lat="44.92146" lon="4.53221">
        <ele>761.076</ele>
        <time>2011-09-09T15:20:39Z</time>
      </trkpt>
      <trkpt lat="44.92155" lon="4.53191">
        <ele>761.297</ele>
        <time>2011-09-09T15:20:59Z</time>
      </trkpt>
      <trkpt lat="44.92162" lon="4.53159">
        <ele>761.089</ele>
        <time>2011-09-09T15:21:21Z</time>
      </trkpt>
      <trkpt lat="44.92173" lon="4.53127">
        <ele>761.292</ele>
        <time>2011-09-09T15:21:43Z</time>
      </trkpt>
      <trkpt lat="44.92177" lon="4.531">
        <ele>761.751</ele>
        <time>2011-09-09T15:22:01Z</time>
      </trkpt>
      <trkpt lat="44.92177" lon="4.53083">
        <ele>761.164</ele>
        <time>2011-09-09T15:22:12Z</time>
      </trkpt>
      <trkpt lat="44.92178" lon="4.53079">
        <ele>761.363</ele>
        <time>2011-09-09T15:22:36Z</time>
      </trkpt>
      <trkpt lat="44.92177" lon="4.53078">
        <ele>761.66</ele>
        <time>2011-09-09T15:22:40Z</time>
      </trkpt>
      <trkpt lat="44.92172" lon="4.53072">
        <ele>761.55</ele>
        <time>2011-09-09T15:22:46Z</time>
      </trkpt>
      <trkpt lat="44.9217" lon="4.53073">
        <ele>761.321</ele>
        <time>2011-09-09T15:22:48Z</time>
      </trkpt>
      <trkpt lat="44.92167" lon="4.53069">
        <ele>761.48</ele>
        <time>2011-09-09T15:22:51Z</time>
      </trkpt>
      <trkpt lat="44.92146" lon="4.53058">
        <ele>760.739</ele>
        <time>2011-09-09T15:23:11Z</time>
      </trkpt>
      <trkpt lat="44.92119" lon="4.53043">
        <ele>760.207</ele>
        <time>2011-09-09T15:23:38Z</time>
      </trkpt>
      <trkpt lat="44.92119" lon="4.5301">
        <ele>758.613</ele>
        <time>2011-09-09T15:23:57Z</time>
      </trkpt>
      <trkpt lat="44.92124" lon="4.52996">
        <ele>757.426</ele>
        <time>2011-09-09T15:24:14Z</time>
      </trkpt>
      <trkpt lat="44.92129" lon="4.52988">
        <ele>757.212</ele>
        <time>2011-09-09T15:24:21Z</time>
      </trkpt>
      <trkpt lat="44.92146" lon="4.52959">
        <ele>755.59</ele>
        <time>2011-09-09T15:24:43Z</time>
      </trkpt>
      <trkpt lat="44.92156" lon="4.52932">
        <ele>754.353</ele>
        <time>2011-09-09T15:25:04Z</time>
      </trkpt>
      <trkpt lat="44.92173" lon="4.52885">
        <ele>751.24</ele>
        <time>2011-09-09T15:25:35Z</time>
      </trkpt>
      <trkpt lat="44.92189" lon="4.52836">
        <ele>748.753</ele>
        <time>2011-09-09T15:26:08Z</time>
      </trkpt>
      <trkpt lat="44.92196" lon="4.52799">
        <ele>746.843</ele>
        <time>2011-09-09T15:26:32Z</time>
      </trkpt>
      <trkpt lat="44.9219" lon="4.5276">
        <ele>745.528</ele>
        <time>2011-09-09T15:26:56Z</time>
      </trkpt>
      <trkpt lat="44.92188" lon="4.52757">
        <ele>745.538</ele>
        <time>2011-09-09T15:26:59Z</time>
      </trkpt>
      <trkpt lat="44.92186" lon="4.5276">
        <ele>744.996</ele>
        <time>2011-09-09T15:27:13Z</time>
      </trkpt>
      <trkpt lat="44.92187" lon="4.52758">
        <ele>745.448</ele>
        <time>2011-09-09T15:27:17Z</time>
      </trkpt>
      <trkpt lat="44.92186" lon="4.52754">
        <ele>744.775</ele>
        <time>2011-09-09T15:27:38Z</time>
      </trkpt>
      <trkpt lat="44.9218" lon="4.52757">
        <ele>744.972</ele>
        <time>2011-09-09T15:27:58Z</time>
      </trkpt>
      <trkpt lat="44.92168" lon="4.52769">
        <ele>744.179</ele>
        <time>2011-09-09T15:29:07Z</time>
      </trkpt>
      <trkpt lat="44.92139" lon="4.52796">
        <ele>741.946</ele>
        <time>2011-09-09T15:29:35Z</time>
      </trkpt>
      <trkpt lat="44.92122" lon="4.52817">
        <ele>738.431</ele>
        <time>2011-09-09T15:29:55Z</time>
      </trkpt>
      <trkpt lat="44.92105" lon="4.52843">
        <ele>736.07</ele>
        <time>2011-09-09T15:30:20Z</time>
      </trkpt>
      <trkpt lat="44.92088" lon="4.52875">
        <ele>733.592</ele>
        <time>2011-09-09T15:30:47Z</time>
      </trkpt>
      <trkpt lat="44.92087" lon="4.5288">
        <ele>733.404</ele>
        <time>2011-09-09T15:30:54Z</time>
      </trkpt>
      <trkpt lat="44.92073" lon="4.52918">
        <ele>731.085</ele>
        <time>2011-09-09T15:31:20Z</time>
      </trkpt>
      <trkpt lat="44.92058" lon="4.52956">
        <ele>728.132</ele>
        <time>2011-09-09T15:31:46Z</time>
      </trkpt>
      <trkpt lat="44.92051" lon="4.52974">
        <ele>727.43</ele>
        <time>2011-09-09T15:31:59Z</time>
      </trkpt>
      <trkpt lat="44.9204" lon="4.52993">
        <ele>726.091</ele>
        <time>2011-09-09T15:32:17Z</time>
      </trkpt>
      <trkpt lat="44.92026" lon="4.52985">
        <ele>723.182</ele>
        <time>2011-09-09T15:32:34Z</time>
      </trkpt>
      <trkpt lat="44.92025" lon="4.52971">
        <ele>722.617</ele>
        <time>2011-09-09T15:32:42Z</time>
      </trkpt>
      <trkpt lat="44.92023" lon="4.52965">
        <ele>722.332</ele>
        <time>2011-09-09T15:32:46Z</time>
      </trkpt>
      <trkpt lat="44.92021" lon="4.52961">
        <ele>722.164</ele>
        <time>2011-09-09T15:32:50Z</time>
      </trkpt>
      <trkpt lat="44.92018" lon="4.52952">
        <ele>722.18</ele>
        <time>2011-09-09T15:32:56Z</time>
      </trkpt>
      <trkpt lat="44.92017" lon="4.52929">
        <ele>723.559</ele>
        <time>2011-09-09T15:33:10Z</time>
      </trkpt>
      <trkpt lat="44.92017" lon="4.52921">
        <ele>723.139</ele>
        <time>2011-09-09T15:33:15Z</time>
      </trkpt>
      <trkpt lat="44.92016" lon="4.529">
        <ele>721.739</ele>
        <time>2011-09-09T15:33:34Z</time>
      </trkpt>
      <trkpt lat="44.92021" lon="4.52886">
        <ele>720.921</ele>
        <time>2011-09-09T15:33:48Z</time>
      </trkpt>
      <trkpt lat="44.92008" lon="4.52869">
        <ele>720.171</ele>
        <time>2011-09-09T15:34:05Z</time>
      </trkpt>
      <trkpt lat="44.9201" lon="4.52867">
        <ele>718.859</ele>
        <time>2011-09-09T15:34:16Z</time>
      </trkpt>
      <trkpt lat="44.92014" lon="4.52861">
        <ele>718.172</ele>
        <time>2011-09-09T15:34:41Z</time>
      </trkpt>
      <trkpt lat="44.92019" lon="4.52848">
        <ele>720.258</ele>
        <time>2011-09-09T15:34:53Z</time>
      </trkpt>
      <trkpt lat="44.92011" lon="4.52827">
        <ele>722.943</ele>
        <time>2011-09-09T15:35:11Z</time>
      </trkpt>
      <trkpt lat="44.92006" lon="4.52811">
        <ele>725.949</ele>
        <time>2011-09-09T15:35:25Z</time>
      </trkpt>
      <trkpt lat="44.92012" lon="4.52794">
        <ele>727.012</ele>
        <time>2011-09-09T15:36:06Z</time>
      </trkpt>
      <trkpt lat="44.92012" lon="4.52792">
        <ele>728.302</ele>
        <time>2011-09-09T15:36:08Z</time>
      </trkpt>
      <trkpt lat="44.92019" lon="4.52756">
        <ele>726.118</ele>
        <time>2011-09-09T15:36:31Z</time>
      </trkpt>
      <trkpt lat="44.92022" lon="4.52741">
        <ele>724.338</ele>
        <time>2011-09-09T15:36:50Z</time>
      </trkpt>
      <trkpt lat="44.92025" lon="4.52731">
        <ele>722.843</ele>
        <time>2011-09-09T15:37:07Z</time>
      </trkpt>
      <trkpt lat="44.92031" lon="4.52705">
        <ele>721.789</ele>
        <time>2011-09-09T15:37:28Z</time>
      </trkpt>
      <trkpt lat="44.92036" lon="4.52696">
        <ele>720.998</ele>
        <time>2011-09-09T15:38:10Z</time>
      </trkpt>
      <trkpt lat="44.92037" lon="4.52693">
        <ele>721.666</ele>
        <time>2011-09-09T15:39:55Z</time>
      </trkpt>
      <trkpt lat="44.92037" lon="4.5269">
        <ele>720.923</ele>
        <time>2011-09-09T15:40:49Z</time>
      </trkpt>
      <trkpt lat="44.9204" lon="4.52658">
        <ele>721.055</ele>
        <time>2011-09-09T15:41:07Z</time>
      </trkpt>
      <trkpt lat="44.92042" lon="4.52622">
        <ele>721.037</ele>
        <time>2011-09-09T15:41:28Z</time>
      </trkpt>
      <trkpt lat="44.92041" lon="4.52611">
        <ele>720.346</ele>
        <time>2011-09-09T15:41:35Z</time>
      </trkpt>
      <trkpt lat="44.9204" lon="4.52605">
        <ele>720.658</ele>
        <time>2011-09-09T15:41:40Z</time>
      </trkpt>
      <trkpt lat="44.92038" lon="4.52572">
        <ele>719.813</ele>
        <time>2011-09-09T15:41:58Z</time>
      </trkpt>
      <trkpt lat="44.92045" lon="4.52537">
        <ele>717.879</ele>
        <time>2011-09-09T15:42:20Z</time>
      </trkpt>
      <trkpt lat="44.92046" lon="4.52536">
        <ele>718.297</ele>
        <time>2011-09-09T15:42:39Z</time>
      </trkpt>
      <trkpt lat="44.92047" lon="4.52527">
        <ele>717.597</ele>
        <time>2011-09-09T15:42:49Z</time>
      </trkpt>
      <trkpt lat="44.92049" lon="4.52483">
        <ele>716.067</ele>
        <time>2011-09-09T15:43:14Z</time>
      </trkpt>
      <trkpt lat="44.92054" lon="4.5245">
        <ele>715.529</ele>
        <time>2011-09-09T15:43:34Z</time>
      </trkpt>
      <trkpt lat="44.92052" lon="4.52445">
        <ele>716.081</ele>
        <time>2011-09-09T15:43:36Z</time>
      </trkpt>
      <trkpt lat="44.92076" lon="4.52427">
        <ele>713.518</ele>
        <time>2011-09-09T15:43:58Z</time>
      </trkpt>
      <trkpt lat="44.92099" lon="4.52426">
        <ele>710.89</ele>
        <time>2011-09-09T15:44:16Z</time>
      </trkpt>
      <trkpt lat="44.92106" lon="4.52402">
        <ele>709.044</ele>
        <time>2011-09-09T15:44:35Z</time>
      </trkpt>
      <trkpt lat="44.92089" lon="4.52377">
        <ele>705.949</ele>
        <time>2011-09-09T15:44:58Z</time>
      </trkpt>
      <trkpt lat="44.92082" lon="4.52364">
        <ele>704.589</ele>
        <time>2011-09-09T15:45:08Z</time>
      </trkpt>
      <trkpt lat="44.92064" lon="4.52349">
        <ele>704.932</ele>
        <time>2011-09-09T15:45:26Z</time>
      </trkpt>
      <trkpt lat="44.9206" lon="4.52347">
        <ele>704.455</ele>
        <time>2011-09-09T15:45:29Z</time>
      </trkpt>
      <trkpt lat="44.92048" lon="4.52342">
        <ele>706.857</ele>
        <time>2011-09-09T15:45:41Z</time>
      </trkpt>
      <trkpt lat="44.92033" lon="4.52335">
        <ele>708.145</ele>
        <time>2011-09-09T15:45:58Z</time>
      </trkpt>
      <trkpt lat="44.92019" lon="4.52326">
        <ele>709.426</ele>
        <time>2011-09-09T15:46:13Z</time>
      </trkpt>
      <trkpt lat="44.92" lon="4.52308">
        <ele>712.149</ele>
        <time>2011-09-09T15:46:35Z</time>
      </trkpt>
      <trkpt lat="44.91992" lon="4.52298">
        <ele>713.194</ele>
        <time>2011-09-09T15:46:52Z</time>
      </trkpt>
      <trkpt lat="44.91984" lon="4.52289">
        <ele>712.711</ele>
        <time>2011-09-09T15:47:04Z</time>
      </trkpt>
      <trkpt lat="44.91969" lon="4.52264">
        <ele>714.402</ele>
        <time>2011-09-09T15:47:25Z</time>
      </trkpt>
      <trkpt lat="44.91955" lon="4.52244">
        <ele>715.399</ele>
        <time>2011-09-09T15:47:43Z</time>
      </trkpt>
      <trkpt lat="44.91937" lon="4.52212">
        <ele>716.349</ele>
        <time>2011-09-09T15:48:09Z</time>
      </trkpt>
      <trkpt lat="44.91932" lon="4.52198">
        <ele>716.325</ele>
        <time>2011-09-09T15:48:19Z</time>
      </trkpt>
      <trkpt lat="44.91908" lon="4.5217">
        <ele>715.928</ele>
        <time>2011-09-09T15:48:49Z</time>
      </trkpt>
      <trkpt lat="44.91893" lon="4.52154">
        <ele>715.727</ele>
        <time>2011-09-09T15:49:08Z</time>
      </trkpt>
      <trkpt lat="44.91883" lon="4.52124">
        <ele>715</ele>
        <time>2011-09-09T15:49:29Z</time>
      </trkpt>
      <trkpt lat="44.9188" lon="4.52114">
        <ele>714.119</ele>
        <time>2011-09-09T15:49:37Z</time>
      </trkpt>
      <trkpt lat="44.91863" lon="4.52102">
        <ele>713.655</ele>
        <time>2011-09-09T15:49:57Z</time>
      </trkpt>
      <trkpt lat="44.91856" lon="4.52099">
        <ele>714.623</ele>
        <time>2011-09-09T15:50:10Z</time>
      </trkpt>
      <trkpt lat="44.9185" lon="4.52096">
        <ele>714.856</ele>
        <time>2011-09-09T15:50:25Z</time>
      </trkpt>
      <trkpt lat="44.91836" lon="4.52065">
        <ele>716.293</ele>
        <time>2011-09-09T15:50:49Z</time>
      </trkpt>
      <trkpt lat="44.91828" lon="4.52036">
        <ele>717.062</ele>
        <time>2011-09-09T15:51:08Z</time>
      </trkpt>
      <trkpt lat="44.91814" lon="4.52002">
        <ele>718.273</ele>
        <time>2011-09-09T15:51:34Z</time>
      </trkpt>
      <trkpt lat="44.91812" lon="4.51996">
        <ele>718.439</ele>
        <time>2011-09-09T15:51:39Z</time>
      </trkpt>
      <trkpt lat="44.91808" lon="4.51982">
        <ele>718.488</ele>
        <time>2011-09-09T15:51:56Z</time>
      </trkpt>
      <trkpt lat="44.91799" lon="4.51931">
        <ele>718.777</ele>
        <time>2011-09-09T15:52:29Z</time>
      </trkpt>
      <trkpt lat="44.91792" lon="4.519">
        <ele>718.312</ele>
        <time>2011-09-09T15:52:49Z</time>
      </trkpt>
      <trkpt lat="44.91777" lon="4.51878">
        <ele>718.436</ele>
        <time>2011-09-09T15:53:12Z</time>
      </trkpt>
      <trkpt lat="44.91775" lon="4.51877">
        <ele>718.579</ele>
        <time>2011-09-09T15:53:21Z</time>
      </trkpt>
      <trkpt lat="44.91754" lon="4.51867">
        <ele>719.934</ele>
        <time>2011-09-09T15:53:42Z</time>
      </trkpt>
      <trkpt lat="44.91739" lon="4.51836">
        <ele>719.738</ele>
        <time>2011-09-09T15:54:06Z</time>
      </trkpt>
      <trkpt lat="44.91721" lon="4.51803">
        <ele>720.659</ele>
        <time>2011-09-09T15:54:31Z</time>
      </trkpt>
      <trkpt lat="44.91718" lon="4.51771">
        <ele>720.849</ele>
        <time>2011-09-09T15:54:54Z</time>
      </trkpt>
      <trkpt lat="44.91717" lon="4.51753">
        <ele>720.162</ele>
        <time>2011-09-09T15:55:10Z</time>
      </trkpt>
      <trkpt lat="44.91714" lon="4.51718">
        <ele>720.075</ele>
        <time>2011-09-09T15:55:32Z</time>
      </trkpt>
      <trkpt lat="44.91711" lon="4.5169">
        <ele>719.98</ele>
        <time>2011-09-09T15:55:54Z</time>
      </trkpt>
      <trkpt lat="44.91718" lon="4.51645">
        <ele>718.551</ele>
        <time>2011-09-09T15:56:23Z</time>
      </trkpt>
      <trkpt lat="44.9172" lon="4.51637">
        <ele>718.12</ele>
        <time>2011-09-09T15:56:28Z</time>
      </trkpt>
      <trkpt lat="44.91728" lon="4.5161">
        <ele>718.485</ele>
        <time>2011-09-09T15:56:45Z</time>
      </trkpt>
      <trkpt lat="44.91742" lon="4.51586">
        <ele>717.895</ele>
        <time>2011-09-09T15:57:06Z</time>
      </trkpt>
      <trkpt lat="44.91743" lon="4.51584">
        <ele>717.809</ele>
        <time>2011-09-09T15:57:15Z</time>
      </trkpt>
      <trkpt lat="44.91744" lon="4.51549">
        <ele>714.865</ele>
        <time>2011-09-09T15:57:37Z</time>
      </trkpt>
      <trkpt lat="44.91745" lon="4.51509">
        <ele>712.708</ele>
        <time>2011-09-09T15:58:01Z</time>
      </trkpt>
      <trkpt lat="44.91746" lon="4.51494">
        <ele>710.675</ele>
        <time>2011-09-09T15:58:14Z</time>
      </trkpt>
      <trkpt lat="44.91748" lon="4.51487">
        <ele>710.474</ele>
        <time>2011-09-09T15:58:19Z</time>
      </trkpt>
      <trkpt lat="44.91747" lon="4.51483">
        <ele>709.898</ele>
        <time>2011-09-09T15:58:21Z</time>
      </trkpt>
      <trkpt lat="44.91757" lon="4.51461">
        <ele>707.929</ele>
        <time>2011-09-09T15:58:37Z</time>
      </trkpt>
      <trkpt lat="44.91761" lon="4.51437">
        <ele>707.197</ele>
        <time>2011-09-09T15:58:55Z</time>
      </trkpt>
      <trkpt lat="44.91763" lon="4.51433">
        <ele>707.18</ele>
        <time>2011-09-09T15:59:17Z</time>
      </trkpt>
      <trkpt lat="44.91765" lon="4.51415">
        <ele>708.04</ele>
        <time>2011-09-09T15:59:28Z</time>
      </trkpt>
      <trkpt lat="44.91757" lon="4.51387">
        <ele>709.535</ele>
        <time>2011-09-09T15:59:49Z</time>
      </trkpt>
      <trkpt lat="44.9176" lon="4.5137">
        <ele>712.148</ele>
        <time>2011-09-09T16:00:05Z</time>
      </trkpt>
      <trkpt lat="44.91766" lon="4.5135">
        <ele>714.094</ele>
        <time>2011-09-09T16:00:25Z</time>
      </trkpt>
      <trkpt lat="44.9177" lon="4.51334">
        <ele>716.456</ele>
        <time>2011-09-09T16:00:45Z</time>
      </trkpt>
      <trkpt lat="44.9178" lon="4.51313">
        <ele>719.551</ele>
        <time>2011-09-09T16:01:06Z</time>
      </trkpt>
      <trkpt lat="44.91772" lon="4.5129">
        <ele>722.238</ele>
        <time>2011-09-09T16:01:26Z</time>
      </trkpt>
      <trkpt lat="44.91772" lon="4.51286">
        <ele>723.642</ele>
        <time>2011-09-09T16:01:47Z</time>
      </trkpt>
      <trkpt lat="44.91768" lon="4.51265">
        <ele>722.478</ele>
        <time>2011-09-09T16:02:04Z</time>
      </trkpt>
      <trkpt lat="44.91763" lon="4.51255">
        <ele>722.275</ele>
        <time>2011-09-09T16:02:13Z</time>
      </trkpt>
      <trkpt lat="44.91759" lon="4.51231">
        <ele>722.8</ele>
        <time>2011-09-09T16:02:33Z</time>
      </trkpt>
      <trkpt lat="44.91753" lon="4.51195">
        <ele>722.817</ele>
        <time>2011-09-09T16:02:57Z</time>
      </trkpt>
      <trkpt lat="44.91749" lon="4.51163">
        <ele>723.815</ele>
        <time>2011-09-09T16:03:19Z</time>
      </trkpt>
      <trkpt lat="44.91748" lon="4.5114">
        <ele>724.474</ele>
        <time>2011-09-09T16:03:36Z</time>
      </trkpt>
      <trkpt lat="44.91743" lon="4.51109">
        <ele>726.298</ele>
        <time>2011-09-09T16:03:56Z</time>
      </trkpt>
      <trkpt lat="44.91741" lon="4.51092">
        <ele>727.194</ele>
        <time>2011-09-09T16:04:08Z</time>
      </trkpt>
      <trkpt lat="44.91738" lon="4.51071">
        <ele>728.721</ele>
        <time>2011-09-09T16:04:26Z</time>
      </trkpt>
      <trkpt lat="44.91738" lon="4.51057">
        <ele>730.205</ele>
        <time>2011-09-09T16:04:41Z</time>
      </trkpt>
      <trkpt lat="44.91748" lon="4.51029">
        <ele>733.366</ele>
        <time>2011-09-09T16:05:06Z</time>
      </trkpt>
      <trkpt lat="44.91759" lon="4.51006">
        <ele>736.272</ele>
        <time>2011-09-09T16:05:29Z</time>
      </trkpt>
      <trkpt lat="44.91766" lon="4.50989">
        <ele>739.503</ele>
        <time>2011-09-09T16:05:46Z</time>
      </trkpt>
      <trkpt lat="44.91776" lon="4.50964">
        <ele>742.658</ele>
        <time>2011-09-09T16:06:09Z</time>
      </trkpt>
      <trkpt lat="44.91788" lon="4.50937">
        <ele>745.56</ele>
        <time>2011-09-09T16:06:35Z</time>
      </trkpt>
      <trkpt lat="44.91795" lon="4.50913">
        <ele>748.779</ele>
        <time>2011-09-09T16:06:57Z</time>
      </trkpt>
      <trkpt lat="44.91806" lon="4.50888">
        <ele>751.838</ele>
        <time>2011-09-09T16:07:23Z</time>
      </trkpt>
      <trkpt lat="44.9181" lon="4.50881">
        <ele>753.715</ele>
        <time>2011-09-09T16:07:31Z</time>
      </trkpt>
      <trkpt lat="44.9182" lon="4.50865">
        <ele>756.641</ele>
        <time>2011-09-09T16:07:56Z</time>
      </trkpt>
      <trkpt lat="44.91826" lon="4.50851">
        <ele>757.343</ele>
        <time>2011-09-09T16:08:30Z</time>
      </trkpt>
      <trkpt lat="44.91832" lon="4.50827">
        <ele>760.698</ele>
        <time>2011-09-09T16:08:51Z</time>
      </trkpt>
      <trkpt lat="44.91838" lon="4.5081">
        <ele>763.275</ele>
        <time>2011-09-09T16:09:13Z</time>
      </trkpt>
      <trkpt lat="44.91841" lon="4.50787">
        <ele>763.79</ele>
        <time>2011-09-09T16:09:33Z</time>
      </trkpt>
      <trkpt lat="44.91848" lon="4.50765">
        <ele>764.597</ele>
        <time>2011-09-09T16:09:50Z</time>
      </trkpt>
      <trkpt lat="44.9185" lon="4.50764">
        <ele>764.522</ele>
        <time>2011-09-09T16:10:17Z</time>
      </trkpt>
      <trkpt lat="44.91848" lon="4.50759">
        <ele>764.414</ele>
        <time>2011-09-09T16:10:37Z</time>
      </trkpt>
      <trkpt lat="44.91846" lon="4.50754">
        <ele>764.662</ele>
        <time>2011-09-09T16:10:43Z</time>
      </trkpt>
      <trkpt lat="44.91854" lon="4.50737">
        <ele>765.203</ele>
        <time>2011-09-09T16:10:55Z</time>
      </trkpt>
      <trkpt lat="44.91879" lon="4.50723">
        <ele>764.594</ele>
        <time>2011-09-09T16:11:19Z</time>
      </trkpt>
      <trkpt lat="44.91904" lon="4.50714">
        <ele>764.316</ele>
        <time>2011-09-09T16:11:42Z</time>
      </trkpt>
      <trkpt lat="44.91926" lon="4.50705">
        <ele>763.882</ele>
        <time>2011-09-09T16:12:04Z</time>
      </trkpt>
      <trkpt lat="44.91931" lon="4.50706">
        <ele>764.009</ele>
        <time>2011-09-09T16:12:17Z</time>
      </trkpt>
      <trkpt lat="44.91932" lon="4.50709">
        <ele>762.483</ele>
        <time>2011-09-09T16:12:30Z</time>
      </trkpt>
      <trkpt lat="44.91935" lon="4.5071">
        <ele>763.197</ele>
        <time>2011-09-09T16:12:50Z</time>
      </trkpt>
    </trkseg>
  </trk>
</gpx>